Time;durP1;ratioP1;P1;durP2;ratioP2;P2;SDS_P1;SDS_P2;PMS_P1;PMS_P2;Temp;Humidity;BMP_temperature;BMP_pressure;BME280_temperature;BME280_humidity;BME280_pressure;Samples;Min_cycle;Max_cycle;Signal;HPM_P1;HPM_P2
2023/11/11 00:01:38;;;;;;;0.00;0.00;;;;;;;8.03;73.93;100167.34;7361190;19;20858;-56
2023/11/11 00:04:04;;;;;;;0.00;0.00;;;;;;;8.10;73.42;100172.44;7354106;19;20014;-56
2023/11/11 00:06:29;;;;;;;0.00;0.00;;;;;;;8.09;73.07;100175.94;7358976;19;20850;-56
2023/11/11 00:08:56;;;;;;;0.00;0.00;;;;;;;8.04;73.32;100182.06;7362649;19;20056;-57
2023/11/11 00:11:23;;;;;;;0.00;0.00;;;;;;;7.92;73.25;100163.28;7357056;19;20014;-57
2023/11/11 00:13:51;;;;;;;0.10;0.10;;;;;;;7.91;73.42;100172.81;7360797;19;20696;-56
2023/11/11 00:16:18;;;;;;;0.00;0.00;;;;;;;8.00;74.01;100193.41;7356288;19;20488;-55
2023/11/11 00:18:43;;;;;;;0.00;0.00;;;;;;;7.98;73.69;100200.41;7359066;19;20022;-55
2023/11/11 00:21:11;;;;;;;0.00;0.00;;;;;;;7.98;74.02;100209.94;7359166;19;20010;-56
2023/11/11 00:23:37;;;;;;;0.10;0.10;;;;;;;7.95;73.88;100203.03;7359418;19;20499;-54
2023/11/11 00:26:03;;;;;;;0.05;0.05;;;;;;;7.78;73.91;100179.16;7356529;19;20021;-55
2023/11/11 00:28:29;;;;;;;0.10;0.10;;;;;;;7.92;74.02;100202.28;7358285;19;20034;-55
2023/11/11 00:30:55;;;;;;;0.00;0.00;;;;;;;7.56;73.78;100149.28;7353405;19;20010;-56
2023/11/11 00:33:21;;;;;;;0.10;0.10;;;;;;;7.87;74.00;100197.16;7352825;19;20006;-56
2023/11/11 00:35:46;;;;;;;0.10;0.10;;;;;;;7.71;74.00;100169.78;7360825;19;20130;-57
2023/11/11 00:38:12;;;;;;;0.10;0.10;;;;;;;7.83;73.87;100195.50;7357836;19;20029;-56
2023/11/11 00:40:41;;;;;;;0.10;0.10;;;;;;;7.82;74.26;100209.41;7364262;19;20424;-57
2023/11/11 00:43:08;;;;;;;0.05;0.05;;;;;;;7.80;74.01;100216.34;7369530;19;20097;-57
2023/11/11 00:45:34;;;;;;;0.00;0.00;;;;;;;7.78;74.01;100203.38;7363786;19;20007;-56
2023/11/11 00:48:00;;;;;;;0.10;0.10;;;;;;;7.75;73.96;100203.44;7361484;19;20003;-58
2023/11/11 00:50:26;;;;;;;0.00;0.00;;;;;;;7.75;73.37;100198.25;7357732;19;20011;-55
2023/11/11 00:52:51;;;;;;;0.00;0.00;;;;;;;7.57;73.72;100167.44;7330976;19;20017;-56
2023/11/11 00:55:17;;;;;;;0.00;0.00;;;;;;;7.73;73.49;100206.97;7359151;19;20021;-53
2023/11/11 00:57:44;;;;;;;0.00;0.00;;;;;;;7.66;73.72;100202.78;7360456;19;20089;-56
2023/11/11 01:00:10;;;;;;;0.10;0.10;;;;;;;7.69;73.87;100213.94;7362717;19;20042;-56
2023/11/11 01:02:36;;;;;;;0.00;0.00;;;;;;;7.60;74.21;100203.72;7362952;19;20662;-62
2023/11/11 01:05:01;;;;;;;0.10;0.10;;;;;;;7.59;73.83;100209.81;7358102;19;20011;-56
2023/11/11 01:07:26;;;;;;;0.10;0.10;;;;;;;7.62;74.20;100217.56;7366362;19;20437;-57
2023/11/11 01:09:52;;;;;;;0.00;0.00;;;;;;;7.66;73.69;100231.38;7374507;19;20018;-60
2023/11/11 01:12:19;;;;;;;0.00;0.00;;;;;;;7.61;73.75;100230.59;7376889;19;20015;-57
2023/11/11 01:14:45;;;;;;;0.00;0.00;;;;;;;7.64;74.07;100233.13;7374794;19;20828;-58
2023/11/11 01:17:10;;;;;;;0.00;0.00;;;;;;;7.63;73.72;100239.22;7369696;19;20034;-56
2023/11/11 01:19:36;;;;;;;0.00;0.00;;;;;;;7.62;74.22;100242.69;7364292;19;20027;-55
2023/11/11 01:22:02;;;;;;;0.00;0.00;;;;;;;7.60;74.00;100244.44;7370085;19;20011;-56
2023/11/11 01:24:27;;;;;;;0.00;0.00;;;;;;;7.53;73.96;100236.75;7368641;19;20007;-58
2023/11/11 01:26:52;;;;;;;0.10;0.10;;;;;;;7.59;73.95;100243.59;7365490;19;20010;-55
2023/11/11 01:29:18;;;;;;;0.10;0.10;;;;;;;7.25;74.03;100191.41;7370181;19;20039;-57
2023/11/11 01:31:43;;;;;;;0.05;0.05;;;;;;;7.57;73.62;100250.56;7363505;19;20014;-56
2023/11/11 01:34:09;;;;;;;0.00;0.00;;;;;;;7.44;73.92;100225.69;7365111;19;20401;-55
2023/11/11 01:36:34;;;;;;;0.10;0.10;;;;;;;7.51;73.48;100246.34;7366455;19;20518;-56
2023/11/11 01:38:59;;;;;;;0.10;0.10;;;;;;;7.52;73.85;100257.59;7367472;19;20010;-57
2023/11/11 01:41:25;;;;;;;0.00;0.00;;;;;;;7.50;73.60;100260.22;7361514;19;20333;-54
2023/11/11 01:43:50;;;;;;;0.00;0.00;;;;;;;7.49;73.64;100258.47;7368739;19;20013;-56
2023/11/11 01:46:16;;;;;;;0.10;0.10;;;;;;;7.47;73.50;100260.25;7368685;19;20034;-56
2023/11/11 01:48:44;;;;;;;0.00;0.00;;;;;;;7.48;73.84;100261.13;7363270;19;20014;-55
2023/11/11 01:51:10;;;;;;;;;;;;;;;7.50;72.84;100260.22;7369249;19;20042;-53
2023/11/11 01:53:36;;;;;;;0.05;0.05;;;;;;;7.45;73.60;100262.03;7364193;19;20292;-55
2023/11/11 01:56:04;;;;;;;0.03;0.03;;;;;;;7.46;73.45;100265.50;7367814;19;20034;-56
2023/11/11 01:58:31;;;;;;;0.00;0.00;;;;;;;7.40;73.61;100266.47;7365341;19;20025;-56
2023/11/11 02:00:58;;;;;;;0.00;0.00;;;;;;;7.42;73.95;100272.47;7368996;19;20014;-57
2023/11/11 02:03:24;;;;;;;0.05;0.05;;;;;;;7.27;73.51;100242.41;7370187;19;20026;-54
2023/11/11 02:05:52;;;;;;;0.00;0.00;;;;;;;7.37;73.80;100269.09;7371134;19;20587;-54
2023/11/11 02:08:17;;;;;;;0.00;0.00;;;;;;;7.39;73.89;100272.50;7369566;19;20043;-56
2023/11/11 02:10:45;;;;;;;0.10;0.10;;;;;;;7.36;73.73;100269.13;7362633;19;20368;-55
2023/11/11 02:13:11;;;;;;;0.00;0.00;;;;;;;7.37;73.66;100271.69;7366929;19;20086;-56
2023/11/11 02:15:36;;;;;;;0.10;0.10;;;;;;;7.36;73.79;100277.78;7368754;19;20014;-58
2023/11/11 02:18:05;;;;;;;0.00;0.00;;;;;;;7.37;73.96;100281.22;7367392;19;21201;-57
2023/11/11 02:20:33;;;;;;;0.00;0.00;;;;;;;7.26;74.21;100271.88;7368557;19;20940;-56
2023/11/11 02:22:59;;;;;;;;;;;;;;;7.36;72.99;100288.16;7357942;19;20045;-56
2023/11/11 02:25:24;;;;;;;0.00;0.00;;;;;;;7.31;73.71;100289.97;7366356;19;20061;-55
2023/11/11 02:27:49;;;;;;;0.00;0.00;;;;;;;7.30;73.83;100283.06;7366161;19;20053;-56
2023/11/11 02:30:15;;;;;;;0.00;0.00;;;;;;;7.26;73.41;100284.00;7371858;19;20442;-56
2023/11/11 02:32:41;;;;;;;0.10;0.10;;;;;;;7.28;73.71;100297.81;7344696;19;20019;-56
2023/11/11 02:35:06;;;;;;;0.10;0.10;;;;;;;7.26;73.93;100292.66;7368006;19;20010;-56
2023/11/11 02:37:31;;;;;;;0.10;0.10;;;;;;;7.13;74.10;100272.06;7366487;19;20746;-57
2023/11/11 02:39:57;;;;;;;0.00;0.00;;;;;;;7.21;74.45;100289.25;7362436;19;20025;-56
2023/11/11 02:42:22;;;;;;;0.00;0.00;;;;;;;7.23;74.46;100291.81;7364782;19;20014;-55
2023/11/11 02:44:47;;;;;;;0.10;0.10;;;;;;;7.12;73.97;100283.34;7363691;19;20488;-55
2023/11/11 02:47:13;;;;;;;0.00;0.00;;;;;;;7.09;74.05;100273.84;7367950;19;20023;-57
2023/11/11 02:49:40;;;;;;;0.10;0.10;;;;;;;7.02;73.67;100257.53;7363945;19;20062;-57
2023/11/11 02:52:05;;;;;;;0.03;0.03;;;;;;;7.15;73.60;100278.13;7370916;19;20675;-57
2023/11/11 02:54:31;;;;;;;0.00;0.00;;;;;;;7.09;73.62;100262.63;7372115;19;20017;-55
2023/11/11 02:56:56;;;;;;;0.00;0.00;;;;;;;7.14;73.73;100273.78;7361387;19;20017;-55
2023/11/11 02:59:21;;;;;;;0.10;0.10;;;;;;;7.14;73.70;100272.03;7352134;19;20042;-56
2023/11/11 03:01:47;;;;;;;0.10;0.10;;;;;;;7.10;74.12;100265.22;7365894;19;20538;-55
2023/11/11 03:04:12;;;;;;;0.10;0.10;;;;;;;6.97;73.80;100243.75;7365801;19;20014;-56
2023/11/11 03:06:43;;;;;;;0.00;0.00;;;;;;;7.09;74.15;100260.00;7369845;19;20979;-56
2023/11/11 03:09:10;;;;;;;0.08;0.08;;;;;;;7.08;74.05;100266.94;7363526;19;20010;-55
2023/11/11 03:11:36;;;;;;;0.00;0.00;;;;;;;6.98;74.51;100261.03;7366582;19;20022;-57
2023/11/11 03:14:02;;;;;;;0.10;0.10;;;;;;;7.04;74.40;100280.84;7363620;19;20006;-56
2023/11/11 03:16:38;;;;;;;0.00;0.00;;;;;;;6.93;74.25;100265.44;7362579;19;19998;-54
2023/11/11 03:19:05;;;;;;;0.00;0.00;;;;;;;7.01;74.61;100276.56;7364678;19;20463;-54
2023/11/11 03:21:32;;;;;;;0.00;0.00;;;;;;;6.97;74.22;100264.53;7361902;19;20875;-54
2023/11/11 03:23:58;;;;;;;0.10;0.10;;;;;;;6.97;73.94;100269.72;7366719;19;20517;-57
2023/11/11 03:26:24;;;;;;;0.00;0.00;;;;;;;6.96;73.76;100273.19;7361529;19;20002;-55
2023/11/11 03:28:50;;;;;;;0.10;0.10;;;;;;;6.94;73.85;100274.94;7363324;19;20011;-54
2023/11/11 03:31:19;;;;;;;0.00;0.00;;;;;;;6.88;74.15;100264.66;7362980;19;19990;-57
2023/11/11 03:33:47;;;;;;;0.10;0.10;;;;;;;6.91;73.69;100268.97;7367021;19;20018;-57
2023/11/11 03:36:13;;;;;;;0.10;0.10;;;;;;;6.86;73.74;100257.78;7343756;19;19998;-56
2023/11/11 03:38:38;;;;;;;0.00;0.00;;;;;;;6.87;73.59;100262.94;7362334;19;20030;-57
2023/11/11 03:41:05;;;;;;;0.00;0.00;;;;;;;6.86;74.05;100266.44;7366580;19;20006;-55
2023/11/11 03:43:31;;;;;;;0.00;0.00;;;;;;;6.78;74.01;100263.06;7365596;19;20018;-55
2023/11/11 03:45:56;;;;;;;0.10;0.10;;;;;;;6.78;74.12;100275.19;7357892;19;21513;-56
2023/11/11 03:48:22;;;;;;;0.10;0.10;;;;;;;6.80;74.32;100281.22;7364979;19;20019;-58
2023/11/11 03:50:48;;;;;;;0.00;0.00;;;;;;;6.79;74.22;100275.16;7356016;19;20010;-53
2023/11/11 03:53:13;;;;;;;0.00;0.00;;;;;;;6.71;74.50;100266.63;7362008;19;20683;-56
2023/11/11 03:55:39;;;;;;;0.08;0.08;;;;;;;6.75;74.01;100268.31;7360860;19;20023;-55
2023/11/11 03:58:06;;;;;;;0.10;0.10;;;;;;;6.73;74.31;100270.06;7361322;19;20647;-56
2023/11/11 04:00:31;;;;;;;0.03;0.03;;;;;;;6.69;74.12;100263.19;7358179;19;20007;-55
2023/11/11 04:02:56;;;;;;;0.10;0.10;;;;;;;6.67;73.99;100275.34;7363937;19;20029;-56
2023/11/11 04:05:22;;;;;;;0.00;0.00;;;;;;;6.67;74.17;100288.31;7365495;19;20007;-57
2023/11/11 04:07:47;;;;;;;0.00;0.00;;;;;;;6.63;74.15;100284.91;7357817;19;20073;-56
2023/11/11 04:10:19;;;;;;;0.00;0.00;;;;;;;6.62;73.92;100292.72;7361286;19;20389;-56
2023/11/11 04:12:45;;;;;;;0.00;0.00;;;;;;;6.58;74.00;100296.22;7362795;19;20359;-57
2023/11/11 04:15:11;;;;;;;0.10;0.10;;;;;;;6.56;74.01;100297.97;7364305;19;20034;-55
2023/11/11 04:17:43;;;;;;;0.00;0.00;;;;;;;6.56;74.12;100296.25;7353496;19;20022;-56
2023/11/11 04:20:12;;;;;;;0.00;0.00;;;;;;;6.53;74.37;100295.41;7356360;19;20082;-56
2023/11/11 04:22:38;;;;;;;0.00;0.00;;;;;;;6.45;74.22;100286.00;7360790;19;20478;-56
2023/11/11 04:25:06;;;;;;;0.00;0.00;;;;;;;6.49;74.26;100292.03;7362955;19;20034;-56
2023/11/11 04:27:40;;;;;;;0.00;0.00;;;;;;;6.37;74.17;100287.81;7369823;19;20030;-57
2023/11/11 04:30:06;;;;;;;0.00;0.00;;;;;;;6.38;74.32;100289.53;7363800;19;20014;-56
2023/11/11 04:32:35;;;;;;;0.10;0.10;;;;;;;6.43;74.06;100297.25;7360072;19;20501;-55
2023/11/11 04:35:01;;;;;;;0.08;0.08;;;;;;;6.43;74.37;100299.84;7365506;19;20015;-57
2023/11/11 04:37:26;;;;;;;0.00;0.00;;;;;;;6.34;74.45;100293.06;7361545;19;20022;-55
2023/11/11 04:39:57;;;;;;;0.03;0.03;;;;;;;6.36;74.34;100286.09;7357157;19;20009;-55
2023/11/11 04:42:24;;;;;;;0.03;0.03;;;;;;;6.23;74.14;100268.97;7361038;19;20093;-58
2023/11/11 04:44:51;;;;;;;0.00;0.00;;;;;;;6.34;74.76;100287.88;7357934;19;20090;-57
2023/11/11 04:47:17;;;;;;;0.10;0.10;;;;;;;6.24;74.40;100265.53;7369816;19;20629;-57
2023/11/11 04:49:43;;;;;;;0.00;0.00;;;;;;;6.15;74.84;100258.72;7348936;19;20019;-57
2023/11/11 04:52:10;;;;;;;0.10;0.10;;;;;;;6.30;74.69;100288.78;7365487;19;20056;-56
2023/11/11 04:54:35;;;;;;;0.00;0.00;;;;;;;6.26;74.51;100288.84;7361062;19;20021;-55
2023/11/11 04:57:01;;;;;;;0.00;0.00;;;;;;;6.27;74.56;100296.59;7362781;19;20010;-57
2023/11/11 04:59:27;;;;;;;0.10;0.10;;;;;;;6.23;74.72;100289.72;7355704;19;20035;-56
2023/11/11 05:01:53;;;;;;;0.00;0.00;;;;;;;6.22;75.08;100301.81;7361962;19;20070;-56
2023/11/11 05:04:20;;;;;;;0.00;0.00;;;;;;;6.23;75.17;100307.84;7360874;19;20019;-55
2023/11/11 05:06:45;;;;;;;0.03;0.03;;;;;;;6.22;75.12;100303.56;7365478;19;21198;-57
2023/11/11 05:09:11;;;;;;;0.10;0.10;;;;;;;6.19;75.21;100298.44;7363251;19;20017;-55
2023/11/11 05:11:37;;;;;;;0.00;0.00;;;;;;;6.16;75.10;100298.44;7354939;19;20861;-54
2023/11/11 05:14:07;;;;;;;0.00;0.00;;;;;;;6.03;74.93;100281.31;7363242;19;20110;-55
2023/11/11 05:16:39;;;;;;;0.00;0.00;;;;;;;6.16;75.11;100298.44;7365227;19;20091;-55
2023/11/11 05:19:07;;;;;;;0.10;0.10;;;;;;;6.14;75.28;100295.88;7357086;19;20018;-56
2023/11/11 05:21:34;;;;;;;0.08;0.08;;;;;;;6.13;75.06;100293.28;7356547;19;20106;-57
2023/11/11 05:23:59;;;;;;;0.00;0.00;;;;;;;6.11;75.22;100301.09;7339016;19;20694;-55
2023/11/11 05:26:25;;;;;;;0.00;0.00;;;;;;;6.09;75.30;100296.81;7361949;19;20021;-57
2023/11/11 05:28:51;;;;;;;0.00;0.00;;;;;;;6.03;75.25;100294.25;7366432;19;20465;-54
2023/11/11 05:31:16;;;;;;;0.00;0.00;;;;;;;6.09;75.49;100307.19;7336535;19;20006;-55
2023/11/11 05:33:42;;;;;;;0.00;0.00;;;;;;;6.08;75.21;100305.44;7358150;19;20018;-56
2023/11/11 05:36:11;;;;;;;0.00;0.00;;;;;;;6.04;75.54;100298.59;7351984;19;20344;-56
2023/11/11 05:38:36;;;;;;;0.10;0.10;;;;;;;6.02;75.35;100298.59;7341999;19;20673;-56
2023/11/11 05:41:02;;;;;;;0.00;0.00;;;;;;;5.97;75.56;100287.41;7362240;19;20010;-55
2023/11/11 05:43:27;;;;;;;0.00;0.00;;;;;;;6.02;75.21;100292.56;7358226;19;20057;-57
2023/11/11 05:45:52;;;;;;;0.10;0.10;;;;;;;6.01;75.36;100293.44;7360632;19;20018;-56
2023/11/11 05:48:18;;;;;;;0.00;0.00;;;;;;;5.97;75.33;100290.84;7354979;19;20007;-55
2023/11/11 05:50:44;;;;;;;0.10;0.10;;;;;;;5.92;75.53;100279.69;7360442;19;20014;-54
2023/11/11 05:53:10;;;;;;;0.03;0.03;;;;;;;5.92;75.59;100279.69;7359492;19;20719;-56
2023/11/11 05:55:36;;;;;;;0.10;0.10;;;;;;;5.92;75.41;100279.69;7366411;19;20064;-56
2023/11/11 05:58:02;;;;;;;0.08;0.08;;;;;;;5.92;75.38;100279.69;7358408;19;20105;-56
2023/11/11 06:00:28;;;;;;;0.10;0.10;;;;;;;5.91;75.09;100261.53;7367397;19;20074;-55
2023/11/11 06:02:53;;;;;;;0.00;0.00;;;;;;;5.90;75.27;100260.69;7356814;19;20649;-56
2023/11/11 06:05:18;;;;;;;0.03;0.03;;;;;;;5.76;75.43;100252.19;7367546;19;20103;-56
2023/11/11 06:07:44;;;;;;;0.03;0.03;;;;;;;5.87;75.12;100260.69;7361430;19;20011;-53
2023/11/11 06:10:10;;;;;;;0.00;0.00;;;;;;;5.86;75.22;100259.00;7363048;19;20010;-55
2023/11/11 06:12:35;;;;;;;0.03;0.03;;;;;;;5.85;75.14;100252.09;7369374;19;20459;-56
2023/11/11 06:15:03;;;;;;;0.00;0.00;;;;;;;5.78;75.41;100223.66;7368280;19;20022;-57
2023/11/11 06:17:28;;;;;;;0.00;0.00;;;;;;;5.84;75.50;100229.66;7366721;19;20614;-55
2023/11/11 06:19:53;;;;;;;0.00;0.00;;;;;;;5.71;75.33;100210.78;7367035;19;20025;-57
2023/11/11 06:22:19;;;;;;;0.00;0.00;;;;;;;5.70;75.65;100216.00;7363186;19;19999;-57
2023/11/11 06:24:44;;;;;;;0.00;0.00;;;;;;;5.77;75.75;100234.91;7364336;19;20010;-55
2023/11/11 06:27:10;;;;;;;0.05;0.05;;;;;;;5.71;75.53;100244.47;7367619;19;20021;-56
2023/11/11 06:29:35;;;;;;;0.10;0.10;;;;;;;5.80;75.43;100259.06;7361211;19;20010;-57
2023/11/11 06:32:01;;;;;;;0.00;0.00;;;;;;;5.79;75.34;100252.16;7359738;19;20007;-54
2023/11/11 06:34:26;;;;;;;0.00;0.00;;;;;;;5.76;75.58;100247.00;7360132;19;20106;-56
2023/11/11 06:36:51;;;;;;;0.00;0.00;;;;;;;5.77;75.47;100247.88;7355951;19;20006;-54
2023/11/11 06:39:17;;;;;;;0.00;0.00;;;;;;;5.75;75.45;100245.28;7361468;19;20052;-56
2023/11/11 06:41:42;;;;;;;0.03;0.03;;;;;;;5.60;75.38;100220.41;7365884;19;20006;-57
2023/11/11 06:44:08;;;;;;;0.00;0.00;;;;;;;5.72;75.54;100242.72;7362493;19;20086;-57
2023/11/11 06:46:33;;;;;;;0.08;0.08;;;;;;;5.53;75.52;100212.72;7363467;19;20025;-57
2023/11/11 06:48:59;;;;;;;0.10;0.10;;;;;;;5.69;75.77;100245.38;7364703;19;20062;-53
2023/11/11 06:51:25;;;;;;;0.10;0.10;;;;;;;5.68;75.68;100243.66;7358923;19;20499;-56
2023/11/11 06:53:50;;;;;;;0.00;0.00;;;;;;;5.65;75.53;100249.72;7358797;19;20028;-56
2023/11/11 06:56:16;;;;;;;0.10;0.10;;;;;;;5.66;75.59;100250.56;7361519;19;20011;-57
2023/11/11 06:58:42;;;;;;;0.00;0.00;;;;;;;5.61;75.57;100254.94;7361397;19;20467;-56
2023/11/11 07:01:08;;;;;;;0.10;0.10;;;;;;;5.64;75.64;100271.31;7366000;19;20013;-54
2023/11/11 07:03:35;;;;;;;0.00;0.00;;;;;;;5.57;75.38;100261.00;7363812;19;20034;-57
2023/11/11 07:06:01;;;;;;;0.05;0.05;;;;;;;5.58;75.29;100270.53;7365141;19;20561;-56
2023/11/11 07:08:28;;;;;;;0.10;0.10;;;;;;;5.56;75.38;100270.50;7364204;19;20367;-55
2023/11/11 07:10:53;;;;;;;0.00;0.00;;;;;;;5.54;75.03;100266.22;7367509;19;20018;-57
2023/11/11 07:13:20;;;;;;;0.00;0.00;;;;;;;5.57;74.45;100272.22;7367209;19;20043;-55
2023/11/11 07:15:46;;;;;;;0.00;0.00;;;;;;;5.57;75.03;100276.53;7365491;19;20851;-56
2023/11/11 07:18:12;;;;;;;0.00;0.00;;;;;;;5.54;75.09;100280.03;7365636;19;20014;-56
2023/11/11 07:20:37;;;;;;;0.10;0.10;;;;;;;5.54;74.23;100292.13;7365320;19;20030;-57
2023/11/11 07:23:03;;;;;;;0.10;0.10;;;;;;;5.54;74.34;100292.13;7354249;19;20052;-57
2023/11/11 07:25:31;;;;;;;0.08;0.08;;;;;;;5.54;74.80;100287.81;7361996;19;20007;-54
2023/11/11 07:27:56;;;;;;;0.08;0.08;;;;;;;5.32;74.55;100245.72;7366141;19;20006;-55
2023/11/11 07:30:22;;;;;;;0.00;0.00;;;;;;;5.44;74.60;100268.91;7359599;19;20451;-56
2023/11/11 07:32:47;;;;;;;0.00;0.00;;;;;;;5.43;74.76;100274.97;7373830;19;20034;-55
2023/11/11 07:35:14;;;;;;;0.00;0.00;;;;;;;5.41;74.65;100286.19;7372680;19;21102;-56
2023/11/11 07:37:42;;;;;;;0.00;0.00;;;;;;;5.51;74.34;100302.50;7367589;19;20040;-57
2023/11/11 07:40:08;;;;;;;;;;;;;;;5.53;73.85;100300.78;7361852;19;20014;-56
2023/11/11 07:42:34;;;;;;;0.00;0.00;;;;;;;5.32;73.85;100269.00;7363839;19;19926;-54
2023/11/11 07:44:59;;;;;;;0.05;0.05;;;;;;;5.46;74.03;100290.44;7367726;19;20363;-56
2023/11/11 07:47:25;;;;;;;0.10;0.10;;;;;;;5.42;74.46;100278.44;7362286;19;20130;-57
2023/11/11 07:49:51;;;;;;;0.00;0.00;;;;;;;5.38;74.16;100270.69;7354799;19;20696;-55
2023/11/11 07:52:16;;;;;;;0.05;0.05;;;;;;;5.32;74.43;100276.78;7370547;19;20039;-55
2023/11/11 07:54:41;;;;;;;0.10;0.10;;;;;;;5.35;74.23;100286.25;7360186;19;20026;-54
2023/11/11 07:57:07;;;;;;;0.00;0.00;;;;;;;5.18;73.94;100268.25;7366502;19;20006;-55
2023/11/11 07:59:45;;;;;;;0.00;0.00;;;;;;;5.15;74.09;100268.28;7360794;19;20030;-54
2023/11/11 08:02:14;;;;;;;0.10;0.10;;;;;;;5.12;74.19;100257.94;7363690;19;20014;-55
2023/11/11 08:04:41;;;;;;;0.00;0.00;;;;;;;5.13;74.44;100272.63;7360395;19;20010;-57
2023/11/11 08:07:08;;;;;;;0.10;0.10;;;;;;;5.23;74.15;100300.16;7361826;19;20018;-55
2023/11/11 08:09:34;;;;;;;0.00;0.00;;;;;;;5.19;74.27;100295.84;7363892;19;20011;-57
2023/11/11 08:12:00;;;;;;;0.10;0.10;;;;;;;5.20;73.66;100308.78;7363985;19;19999;-57
2023/11/11 08:14:25;;;;;;;0.00;0.00;;;;;;;5.17;73.83;100315.69;7364233;19;20473;-56
2023/11/11 08:16:51;;;;;;;0.00;0.00;;;;;;;5.04;73.70;100312.34;7364527;19;20369;-56
2023/11/11 08:19:18;;;;;;;0.00;0.00;;;;;;;5.13;73.89;100321.78;7357506;19;20416;-54
2023/11/11 08:21:44;;;;;;;0.10;0.10;;;;;;;5.03;74.11;100296.84;7365061;19;20725;-55
2023/11/11 08:24:09;;;;;;;0.10;0.10;;;;;;;5.11;74.38;100307.97;7356482;19;20066;-57
2023/11/11 08:26:35;;;;;;;0.10;0.10;;;;;;;5.11;74.17;100318.34;7363763;19;20013;-57
2023/11/11 08:29:01;;;;;;;0.00;0.00;;;;;;;5.10;74.49;100330.41;7360593;19;20025;-55
2023/11/11 08:31:27;;;;;;;0.10;0.10;;;;;;;5.01;74.28;100325.28;7360715;19;20010;-57
2023/11/11 08:33:52;;;;;;;0.00;0.00;;;;;;;4.95;74.40;100308.06;7360115;19;20695;-56
2023/11/11 08:36:18;;;;;;;0.00;0.00;;;;;;;5.07;74.13;100335.63;7361579;19;20521;-57
2023/11/11 08:38:44;;;;;;;0.00;0.00;;;;;;;5.09;74.58;100341.66;7355351;19;20010;-56
2023/11/11 08:41:09;;;;;;;0.00;0.00;;;;;;;5.06;74.53;100338.22;7361272;19;20006;-58
2023/11/11 08:43:35;;;;;;;0.00;0.00;;;;;;;4.72;74.62;100278.91;7358604;19;20470;-56
2023/11/11 08:46:01;;;;;;;0.05;0.05;;;;;;;5.11;74.89;100336.44;7360960;19;20006;-56
2023/11/11 08:48:26;;;;;;;0.00;0.00;;;;;;;5.15;74.66;100351.94;7360705;19;20010;-56
2023/11/11 08:50:53;;;;;;;0.10;0.10;;;;;;;5.05;74.42;100339.09;7353025;19;20034;-56
2023/11/11 08:53:18;;;;;;;0.00;0.00;;;;;;;5.11;74.25;100346.81;7358882;19;20007;-56
2023/11/11 08:55:44;;;;;;;0.10;0.10;;;;;;;5.11;74.70;100334.72;7354576;19;20013;-55
2023/11/11 08:58:09;;;;;;;0.00;0.00;;;;;;;5.25;74.85;100338.97;7360934;19;20015;-56
2023/11/11 09:00:35;;;;;;;0.08;0.08;;;;;;;5.35;74.52;100348.38;7364678;19;20010;-57
2023/11/11 09:03:02;;;;;;;0.00;0.00;;;;;;;5.44;75.07;100359.53;7360664;19;20015;-55
2023/11/11 09:05:27;;;;;;;0.08;0.08;;;;;;;5.52;75.08;100366.38;7356973;19;20017;-55
2023/11/11 09:07:53;;;;;;;0.00;0.00;;;;;;;5.46;74.59;100349.16;7363025;19;20015;-55
2023/11/11 09:10:18;;;;;;;0.05;0.05;;;;;;;5.66;74.78;100355.03;7361600;19;20006;-57
2023/11/11 09:12:43;;;;;;;0.00;0.00;;;;;;;5.62;74.81;100336.94;7342609;19;20638;-56
2023/11/11 09:15:10;;;;;;;0.10;0.10;;;;;;;5.31;74.63;100277.63;7332795;19;20003;-55
2023/11/11 09:17:37;;;;;;;0.10;0.10;;;;;;;5.69;74.93;100323.06;7347171;19;20012;-56
2023/11/11 09:20:07;;;;;;;0.10;0.10;;;;;;;5.90;74.81;100347.94;7351902;19;20597;-56
2023/11/11 09:22:33;;;;;;;0.10;0.10;;;;;;;5.94;74.49;100340.16;7348694;19;20378;-53
2023/11/11 09:24:58;;;;;;;0.00;0.00;;;;;;;6.03;74.42;100333.13;7360615;19;20105;-55
2023/11/11 09:27:24;;;;;;;0.10;0.10;;;;;;;6.11;74.32;100336.53;7361464;19;20742;-57
2023/11/11 09:29:50;;;;;;;0.00;0.00;;;;;;;6.18;74.69;100341.66;7368012;19;20019;-55
2023/11/11 09:32:16;;;;;;;0.10;0.10;;;;;;;6.28;74.54;100344.13;7366871;19;20011;-56
2023/11/11 09:34:42;;;;;;;0.10;0.10;;;;;;;6.35;74.23;100335.41;7362316;19;20029;-56
2023/11/11 09:37:08;;;;;;;0.10;0.10;;;;;;;6.43;74.57;100323.19;7359378;19;20119;-55
2023/11/11 09:39:33;;;;;;;0.00;0.00;;;;;;;6.50;74.23;100320.53;7363144;19;20419;-57
2023/11/11 09:41:59;;;;;;;0.00;0.00;;;;;;;6.59;74.33;100319.56;7361537;19;20495;-54
2023/11/11 09:44:25;;;;;;;0.03;0.03;;;;;;;6.63;74.37;100304.78;7361794;19;20018;-55
2023/11/11 09:46:55;;;;;;;0.00;0.00;;;;;;;6.80;74.31;100307.19;7362258;19;20010;-57
2023/11/11 09:49:20;;;;;;;0.00;0.00;;;;;;;6.86;74.16;100297.56;7363685;19;20011;-55
2023/11/11 09:51:48;;;;;;;0.00;0.00;;;;;;;6.99;73.86;100306.91;7363590;19;20022;-56
2023/11/11 09:54:14;;;;;;;0.00;0.00;;;;;;;7.11;73.95;100308.47;7362534;19;20019;-54
2023/11/11 09:56:43;;;;;;;0.00;0.00;;;;;;;7.26;73.91;100318.63;7364664;19;20010;-57
2023/11/11 09:59:10;;;;;;;0.00;0.00;;;;;;;7.44;74.18;100312.25;7353619;19;20010;-56
2023/11/11 10:01:41;;;;;;;0.00;0.00;;;;;;;7.66;73.66;100301.53;7345025;19;20077;-57
2023/11/11 10:04:07;;;;;;;0.10;0.10;;;;;;;7.83;73.85;100301.22;7355138;19;20039;-57
2023/11/11 10:06:33;;;;;;;0.10;0.10;;;;;;;7.97;73.39;100279.28;7358136;19;20077;-57
2023/11/11 10:09:00;;;;;;;0.10;0.10;;;;;;;8.25;73.04;100296.97;7353575;19;21022;-58
2023/11/11 10:11:25;;;;;;;0.00;0.00;;;;;;;8.47;73.27;100308.69;7355538;19;20010;-56
2023/11/11 10:13:54;;;;;;;0.00;0.00;;;;;;;8.67;72.87;100310.88;7362260;19;20042;-57
2023/11/11 10:16:22;;;;;;;0.00;0.00;;;;;;;8.82;72.86;100299.28;7352608;19;20022;-56
2023/11/11 10:18:49;;;;;;;0.10;0.10;;;;;;;8.94;72.34;100303.38;7358714;19;20010;-56
2023/11/11 10:21:16;;;;;;;0.03;0.03;;;;;;;8.99;72.22;100315.38;7361030;19;20037;-57
2023/11/11 10:23:44;;;;;;;0.00;0.00;;;;;;;9.00;72.33;100304.06;7357303;19;20120;-54
2023/11/11 10:26:10;;;;;;;0.10;0.10;;;;;;;8.99;72.14;100317.13;7357620;19;20753;-57
2023/11/11 10:28:35;;;;;;;0.00;0.00;;;;;;;8.93;71.94;100314.69;7361498;19;20011;-56
2023/11/11 10:31:09;;;;;;;0.00;0.00;;;;;;;8.91;72.06;100314.69;7356459;19;20480;-56
2023/11/11 10:33:37;;;;;;;0.00;0.00;;;;;;;8.82;72.07;100309.72;7361833;19;20094;-57
2023/11/11 10:36:03;;;;;;;0.00;0.00;;;;;;;8.72;72.22;100313.41;7359735;19;20038;-57
2023/11/11 10:38:30;;;;;;;0.10;0.10;;;;;;;8.66;72.13;100326.53;7357429;19;20078;-57
2023/11/11 10:40:56;;;;;;;0.07;0.07;;;;;;;8.61;72.17;100321.41;7357789;19;20031;-56
2023/11/11 10:43:26;;;;;;;0.10;0.10;;;;;;;8.58;72.36;100319.75;7356217;19;20753;-55
2023/11/11 10:45:52;;;;;;;0.10;0.10;;;;;;;8.52;72.32;100332.88;7355056;19;20014;-56
2023/11/11 10:48:18;;;;;;;0.00;0.00;;;;;;;8.46;72.52;100327.78;7359039;19;20034;-57
2023/11/11 10:50:44;;;;;;;0.03;0.03;;;;;;;8.42;72.76;100323.53;7346660;19;20876;-56
2023/11/11 10:53:12;;;;;;;0.10;0.10;;;;;;;8.42;72.46;100325.28;7347148;19;20018;-57
2023/11/11 10:55:38;;;;;;;0.10;0.10;;;;;;;8.39;72.69;100334.00;7350695;19;20006;-55
2023/11/11 10:58:06;;;;;;;0.10;0.10;;;;;;;8.42;73.09;100338.31;7356360;19;20364;-56
2023/11/11 11:00:34;;;;;;;;;;;;;;;8.46;73.04;100327.78;7365853;19;20093;-56
2023/11/11 11:03:00;;;;;;;0.10;0.10;;;;;;;8.47;72.89;100328.66;7359298;19;20288;-57
2023/11/11 11:05:56;;;;;;;0.00;0.00;;;;;;;8.54;72.67;100319.84;7361047;19;20015;-55
2023/11/11 11:08:46;;;;;;;0.10;0.10;;;;;;;8.57;72.55;100325.00;7362814;19;21811;-55
2023/11/11 11:11:32;;;;;;;0.00;0.00;;;;;;;8.57;72.71;100323.25;7357801;19;20018;-56
2023/11/11 11:14:11;;;;;;;0.08;0.08;;;;;;;8.68;72.78;100323.00;7359539;19;20015;-55
2023/11/11 11:16:39;;;;;;;0.10;0.10;;;;;;;8.74;72.92;100319.41;7353788;19;20094;-57
2023/11/11 11:19:07;;;;;;;0.03;0.03;;;;;;;8.81;72.57;100313.19;7359341;19;20018;-56
2023/11/11 11:21:34;;;;;;;;;;;;;;;8.97;73.37;100309.38;7353951;19;20014;-57
2023/11/11 11:24:16;;;;;;;0.10;0.10;;;;;;;9.14;72.98;100300.31;7354156;19;19922;-56
2023/11/11 11:26:42;;;;;;;0.00;0.00;;;;;;;9.31;72.55;100308.56;7361907;19;20107;-56
2023/11/11 11:29:12;;;;;;;0.00;0.00;;;;;;;9.55;72.85;100318.41;7357130;19;20882;-57
2023/11/11 11:32:06;;;;;;;0.10;0.10;;;;;;;9.82;73.18;100305.56;7364436;19;20011;-57